Poolville, Texas
Current Conditions -  °F | °C
As of 12:55 PM on Sunday 23 Nov 2014 (Local Time) from KXBP Reporting Station
Clear Clear  
Wind Chill: 72°   Ceiling: Unl
Heat Index: 72°   Visibility: 10mi
Dew Point: 42°   Wind: 14mph
Humidity: 35%   Direction: 260°W
Pressure: 29.43"   Gusts: 24mph
Location:  32.97°N, 97.86°W
Report Text: KXBP 231855Z AUTO 26012G21KT 230V290 10SM CLR 22/06 A2943 RMK AO2 T02200058
Loading
Personal Weather Stations






























Interactive Weather Map New forecast layout! Learn more

10-Day Weather Forecast

Advertisements
Track Severe Weather on mobile